Time;durP1;ratioP1;P1;durP2;ratioP2;P2;SDS_P1;SDS_P2;PMS_P1;PMS_P2;Temp;Humidity;BMP_temperature;BMP_pressure;BME280_temperature;BME280_humidity;BME280_pressure;Samples;Min_cycle;Max_cycle;Signal;HPM_P1;HPM_P2
2023/06/26 00:00:47;;;;;;;13.63;12.15;;;;;;;20.67;95.26;101204.09;5032935;28;20057;-76
2023/06/26 00:03:14;;;;;;;12.55;11.25;;;;;;;20.71;95.74;101221.16;5033000;28;20033;-77
2023/06/26 00:05:40;;;;;;;12.82;11.40;;;;;;;20.65;94.14;101221.75;5032948;28;20036;-77
2023/06/26 00:08:06;;;;;;;11.10;9.48;;;;;;;20.70;89.39;101211.66;5032672;28;20499;-78
2023/06/26 00:10:31;;;;;;;10.68;8.63;;;;;;;20.90;84.74;101210.47;5032805;28;20123;-77
2023/06/26 00:12:56;;;;;;;10.80;8.70;;;;;;;20.99;83.09;101182.47;5031411;28;20175;-78
2023/06/26 00:15:22;;;;;;;11.13;9.07;;;;;;;21.24;82.34;101196.53;5032660;28;20062;-78
2023/06/26 00:17:48;;;;;;;10.88;8.50;;;;;;;21.32;80.58;101199.22;5031372;28;20021;-78
2023/06/26 00:20:14;;;;;;;10.80;8.73;;;;;;;21.42;79.44;101200.75;5032600;28;20104;-78
2023/06/26 00:22:40;;;;;;;10.20;8.90;;;;;;;21.47;78.94;101198.50;5032451;28;20194;-77
2023/06/26 00:25:06;;;;;;;9.63;8.13;;;;;;;21.41;79.59;101193.03;5032557;28;20108;-78
2023/06/26 00:27:32;;;;;;;8.90;7.78;;;;;;;21.44;79.84;101195.38;5032424;28;20104;-78
2023/06/26 00:29:57;;;;;;;9.88;8.10;;;;;;;21.37;79.82;101195.16;5032803;28;20021;-78
2023/06/26 00:32:22;;;;;;;9.82;8.82;;;;;;;21.30;79.54;101186.25;5032357;28;20017;-78
2023/06/26 00:34:48;;;;;;;10.55;8.75;;;;;;;21.37;79.30;101191.72;5032517;28;20060;-78
2023/06/26 00:37:13;;;;;;;10.20;8.75;;;;;;;21.23;79.78;101173.88;5032470;28;20193;-78
2023/06/26 00:39:38;;;;;;;10.48;8.63;;;;;;;21.33;79.54;101195.63;5032539;28;20029;-78
2023/06/26 00:42:04;;;;;;;10.65;9.00;;;;;;;21.08;80.01;101158.72;5032462;28;20043;-78
2023/06/26 00:44:30;;;;;;;10.73;9.00;;;;;;;21.27;80.03;101198.91;5032598;28;20360;-78
2023/06/26 00:46:55;;;;;;;11.85;8.95;;;;;;;21.28;79.50;101197.91;5032111;28;20025;-78
2023/06/26 00:49:20;;;;;;;10.68;8.93;;;;;;;21.22;79.60;101204.56;5032093;28;20041;-79
2023/06/26 00:51:46;;;;;;;11.65;9.30;;;;;;;21.22;79.99;101199.31;5032164;28;20056;-78
2023/06/26 00:54:14;;;;;;;11.80;9.23;;;;;;;21.23;79.51;101211.47;5032308;28;20026;-78
2023/06/26 00:56:39;;;;;;;10.60;9.10;;;;;;;21.23;79.46;101203.59;5032335;28;20026;-78
2023/06/26 00:59:05;;;;;;;10.50;9.43;;;;;;;21.15;78.85;101180.75;5032379;28;20075;-78
2023/06/26 01:01:30;;;;;;;10.82;9.35;;;;;;;21.16;78.99;101189.47;5030847;28;20042;-78
2023/06/26 01:03:56;;;;;;;12.45;9.43;;;;;;;21.16;78.92;101194.72;5030529;28;20041;-78
2023/06/26 01:06:25;;;;;;;10.57;9.48;;;;;;;21.26;78.94;101213.84;5032246;28;20033;-78
2023/06/26 01:08:51;;;;;;;12.40;9.85;;;;;;;21.12;79.04;101199.44;5035721;28;20152;-78
2023/06/26 01:11:18;;;;;;;11.43;9.43;;;;;;;21.16;79.56;101215.72;5034765;28;20049;-78
2023/06/26 01:13:46;;;;;;;10.63;9.52;;;;;;;21.06;80.63;101212.38;5035889;28;20037;-78
2023/06/26 01:16:12;;;;;;;11.75;9.55;;;;;;;20.96;80.35;101203.78;5036042;28;20025;-77
2023/06/26 01:18:42;;;;;;;10.95;9.27;;;;;;;20.98;80.39;101213.16;5035834;28;20029;-77
2023/06/26 01:21:09;;;;;;;11.30;9.32;;;;;;;20.96;80.25;101216.91;5035943;28;20089;-77
2023/06/26 01:23:47;;;;;;;11.40;8.70;;;;;;;20.99;80.71;101224.47;5034339;28;20060;-78
2023/06/26 01:26:22;;;;;;;10.82;8.55;;;;;;;20.92;80.47;101226.88;5034579;28;20021;-78
2023/06/26 01:28:51;;;;;;;9.60;8.60;;;;;;;20.75;80.95;101212.84;5035787;28;20026;-78
2023/06/26 01:31:17;;;;;;;11.40;9.25;;;;;;;20.84;81.35;101235.56;5035733;28;20112;-78
2023/06/26 01:33:43;;;;;;;13.95;9.55;;;;;;;20.85;80.90;101236.38;5035771;28;20025;-78
2023/06/26 01:36:08;;;;;;;11.77;9.38;;;;;;;20.83;81.41;101238.31;5034409;28;20399;-77
2023/06/26 01:38:36;;;;;;;11.27;9.23;;;;;;;20.84;81.38;101242.56;5033882;28;20479;-77
2023/06/26 01:41:03;;;;;;;11.00;9.15;;;;;;;20.64;80.22;101215.69;5035699;28;20029;-77
2023/06/26 01:43:29;;;;;;;11.82;9.00;;;;;;;20.78;80.94;101243.22;5035538;28;20441;-78
2023/06/26 01:46:03;;;;;;;8.68;7.65;;;;;;;20.74;80.17;101242.66;5034030;28;20120;-78
2023/06/26 01:48:35;;;;;;;8.90;7.57;;;;;;;20.74;80.42;101255.78;5033215;28;20108;-78
2023/06/26 01:51:01;;;;;;;11.20;7.35;;;;;;;20.72;79.62;101265.63;5035430;28;20042;-78
2023/06/26 01:53:35;;;;;;;10.10;6.80;;;;;;;20.67;79.78;101261.81;5035034;28;20423;-77
2023/06/26 01:56:08;;;;;;;9.68;6.70;;;;;;;20.71;79.55;101268.41;5048332;22;20148;-77
2023/06/26 01:58:35;;;;;;;9.93;7.15;;;;;;;20.59;79.97;101273.88;5015273;28;20022;-78
2023/06/26 02:01:00;;;;;;;9.57;6.60;;;;;;;20.52;79.77;101258.91;4997491;28;20034;-78
2023/06/26 02:03:26;;;;;;;9.13;6.88;;;;;;;20.28;79.84;101223.56;5015472;28;20030;-78
2023/06/26 02:05:51;;;;;;;9.25;6.22;;;;;;;20.29;79.74;101227.03;5015221;28;20535;-78
2023/06/26 02:08:17;;;;;;;10.80;6.82;;;;;;;20.48;79.88;101265.44;4997681;28;20026;-78
2023/06/26 02:10:42;;;;;;;9.52;6.35;;;;;;;20.24;80.92;101235.31;5015045;28;20033;-78
2023/06/26 02:13:07;;;;;;;9.43;6.28;;;;;;;20.33;80.64;101255.41;5014990;28;20053;-77
2023/06/26 02:15:33;;;;;;;9.68;6.40;;;;;;;20.20;81.10;101241.84;5015020;28;20033;-77
2023/06/26 02:17:58;;;;;;;8.95;5.82;;;;;;;20.24;80.66;101248.44;4997597;28;20028;-77
2023/06/26 02:20:24;;;;;;;7.75;5.80;;;;;;;20.27;80.90;101257.81;5014122;28;20022;-77
2023/06/26 02:22:49;;;;;;;8.98;6.22;;;;;;;20.28;80.85;101262.09;5014948;28;20025;-77
2023/06/26 02:25:15;;;;;;;8.93;5.80;;;;;;;20.22;81.40;101253.00;5014837;28;20026;-78
2023/06/26 02:27:40;;;;;;;10.50;6.40;;;;;;;20.13;81.86;101247.84;5014864;28;20025;-78
2023/06/26 02:30:06;;;;;;;9.70;5.75;;;;;;;19.99;82.41;101236.06;5014606;28;20455;-77
2023/06/26 02:32:31;;;;;;;7.65;5.38;;;;;;;20.11;82.22;101266.34;5014722;28;20033;-77
2023/06/26 02:34:57;;;;;;;9.90;5.65;;;;;;;20.00;82.47;101256.06;5014730;28;20033;-78
2023/06/26 02:37:22;;;;;;;10.13;6.07;;;;;;;20.02;81.06;101273.28;5014770;28;20025;-76
2023/06/26 02:39:47;;;;;;;8.75;4.97;;;;;;;20.02;80.94;101267.22;5014375;28;20029;-77
2023/06/26 02:42:13;;;;;;;10.55;4.95;;;;;;;19.97;80.17;101277.34;5014567;28;20033;-77
2023/06/26 02:44:38;;;;;;;7.80;4.75;;;;;;;19.95;80.20;101274.84;5014336;28;20030;-77
2023/06/26 02:47:04;;;;;;;7.97;5.25;;;;;;;19.94;80.83;101282.84;5014437;28;20029;-77
2023/06/26 02:49:29;;;;;;;8.95;4.93;;;;;;;19.88;80.56;101286.06;5014587;28;20387;-77
2023/06/26 02:51:54;;;;;;;9.95;4.43;;;;;;;19.84;80.61;101274.22;5014276;28;20541;-77
2023/06/26 02:54:20;;;;;;;8.25;4.35;;;;;;;19.84;80.77;101285.53;5014327;28;20026;-77
2023/06/26 02:56:45;;;;;;;10.15;5.03;;;;;;;19.78;80.59;101278.25;5014239;28;20045;-77
2023/06/26 02:59:10;;;;;;;10.77;4.88;;;;;;;19.82;81.04;101297.97;5014329;28;20030;-77
2023/06/26 03:01:36;;;;;;;9.05;4.78;;;;;;;19.69;81.55;101285.19;5014084;28;20022;-76
2023/06/26 03:04:02;;;;;;;12.63;4.70;;;;;;;19.62;82.04;101286.72;4997113;28;20030;-76
2023/06/26 03:06:27;;;;;;;9.82;4.80;;;;;;;19.68;82.39;101303.69;5014318;28;20038;-76
2023/06/26 03:08:53;;;;;;;8.82;4.88;;;;;;;19.67;82.97;101307.28;5014109;28;20105;-77
2023/06/26 03:11:19;;;;;;;9.75;5.32;;;;;;;19.54;83.33;101293.63;5013942;28;20045;-77
2023/06/26 03:13:44;;;;;;;10.52;4.82;;;;;;;19.42;83.42;101285.94;5013970;28;20037;-77
2023/06/26 03:16:10;;;;;;;9.75;4.90;;;;;;;19.43;83.24;101284.97;5013847;28;20030;-77
2023/06/26 03:18:35;;;;;;;11.15;5.60;;;;;;;19.49;83.72;101301.94;5013914;28;20380;-77
2023/06/26 03:21:01;;;;;;;9.43;4.95;;;;;;;19.45;84.23;101311.84;5013955;28;20033;-77
2023/06/26 03:23:26;;;;;;;10.60;5.35;;;;;;;19.40;84.75;101310.63;4996163;28;20026;-77
2023/06/26 03:25:52;;;;;;;10.00;5.60;;;;;;;19.37;84.79;101306.50;5013586;28;20026;-77
2023/06/26 03:28:17;;;;;;;10.57;5.20;;;;;;;19.33;85.78;101309.53;5013744;28;20025;-77
2023/06/26 03:30:43;;;;;;;9.07;5.40;;;;;;;19.30;85.58;101304.59;5013576;28;20030;-75
2023/06/26 03:33:08;;;;;;;9.07;5.32;;;;;;;19.28;85.66;101301.31;5013564;28;20029;-77
2023/06/26 03:35:33;;;;;;;8.50;5.63;;;;;;;19.26;86.09;101306.66;5014030;28;20057;-77
2023/06/26 03:38:00;;;;;;;8.85;5.35;;;;;;;19.27;86.33;101297.00;5013923;28;20564;-77
2023/06/26 03:40:26;;;;;;;10.18;5.18;;;;;;;19.20;86.24;101296.75;5013339;28;20117;-77
2023/06/26 03:42:51;;;;;;;8.45;5.50;;;;;;;19.18;86.79;101301.31;5013662;28;20108;-77
2023/06/26 03:45:16;;;;;;;11.70;5.63;;;;;;;19.16;87.00;101305.84;5013390;28;20044;-77
2023/06/26 03:47:42;;;;;;;9.18;5.72;;;;;;;19.11;87.71;101305.47;4995643;28;20493;-78
2023/06/26 03:50:07;;;;;;;8.90;5.43;;;;;;;19.10;87.57;101309.88;4995890;28;20025;-77
2023/06/26 03:52:33;;;;;;;9.98;5.20;;;;;;;18.91;87.86;101281.94;4995443;28;20038;-77
2023/06/26 03:54:58;;;;;;;10.18;5.40;;;;;;;19.08;87.70;101318.84;5013055;28;20058;-78
2023/06/26 03:57:24;;;;;;;11.40;5.50;;;;;;;19.08;88.55;101322.28;5012977;28;20045;-77
2023/06/26 03:59:50;;;;;;;12.65;5.63;;;;;;;18.85;88.56;101292.13;5013274;28;20026;-77
2023/06/26 04:02:16;;;;;;;9.82;5.35;;;;;;;18.62;89.09;101257.53;4995671;28;20067;-76
2023/06/26 04:04:41;;;;;;;10.68;5.53;;;;;;;18.83;89.12;101289.63;5013297;28;20030;-77
2023/06/26 04:07:06;;;;;;;10.90;5.30;;;;;;;19.09;89.48;101338.81;5013117;28;20033;-76
2023/06/26 04:09:32;;;;;;;10.07;6.05;;;;;;;19.07;89.74;101343.34;5013316;28;20113;-76
2023/06/26 04:11:57;;;;;;;11.55;5.22;;;;;;;19.05;89.70;101346.09;5012661;28;20075;-75
2023/06/26 04:14:22;;;;;;;12.23;5.18;;;;;;;19.07;89.93;101344.16;5013139;28;20109;-76
2023/06/26 04:16:48;;;;;;;12.20;5.70;;;;;;;18.88;90.26;101318.03;5013018;28;20033;-75
2023/06/26 04:19:13;;;;;;;11.48;5.57;;;;;;;19.13;90.12;101356.69;5012951;28;20026;-77
2023/06/26 04:21:39;;;;;;;12.25;5.32;;;;;;;19.19;89.87;101360.56;5013108;28;20040;-77
2023/06/26 04:24:05;;;;;;;11.48;5.80;;;;;;;19.26;89.75;101356.41;5013212;28;20076;-78
2023/06/26 04:26:30;;;;;;;13.02;5.88;;;;;;;19.29;89.97;101344.84;5012839;28;20030;-77
2023/06/26 04:28:55;;;;;;;11.55;5.53;;;;;;;19.41;89.63;101351.56;5012955;28;20167;-76
2023/06/26 04:31:22;;;;;;;11.02;5.90;;;;;;;19.53;90.18;101345.19;5012778;28;20454;-77
2023/06/26 04:33:50;;;;;;;15.32;6.30;;;;;;;19.60;89.06;101362.03;5012896;28;20033;-77
2023/06/26 04:36:18;;;;;;;12.38;5.32;;;;;;;19.56;89.55;101337.06;4995890;28;20026;-77
2023/06/26 04:38:43;;;;;;;15.02;6.25;;;;;;;19.80;88.90;101360.19;5012820;28;20030;-77
2023/06/26 04:41:09;;;;;;;12.45;6.25;;;;;;;19.87;88.89;101358.66;5012523;28;20030;-77
2023/06/26 04:43:34;;;;;;;13.40;6.35;;;;;;;20.05;88.16;101362.13;5016328;28;20032;-77
2023/06/26 04:46:02;;;;;;;14.30;6.28;;;;;;;20.04;87.72;101347.38;4998915;28;20108;-77
2023/06/26 04:48:28;;;;;;;11.40;5.10;;;;;;;20.23;87.93;101377.91;5016718;28;20387;-76
2023/06/26 04:50:55;;;;;;;10.95;5.50;;;;;;;20.25;88.28;101375.16;5016588;28;20021;-77
2023/06/26 04:53:22;;;;;;;13.60;5.75;;;;;;;20.12;87.13;101367.63;5016588;28;20056;-76
2023/06/26 04:55:51;;;;;;;12.68;5.20;;;;;;;20.32;86.50;101381.47;5016484;28;20046;-76
2023/06/26 04:58:17;;;;;;;10.93;5.22;;;;;;;20.30;85.67;101376.38;5016408;28;20033;-76
2023/06/26 05:00:43;;;;;;;11.43;5.32;;;;;;;20.53;84.53;101391.72;5016732;28;20030;-76
2023/06/26 05:03:13;;;;;;;10.05;5.15;;;;;;;20.59;84.75;101386.72;5016506;28;20116;-75
2023/06/26 05:05:39;;;;;;;11.47;5.47;;;;;;;20.83;83.84;101401.88;5016280;28;20014;-75
2023/06/26 05:08:36;;;;;;;12.23;5.20;;;;;;;20.80;83.23;101368.06;5016375;28;20107;-76
2023/06/26 05:11:02;;;;;;;18.63;5.28;;;;;;;21.04;80.78;101401.63;4958696;28;20031;-76
2023/06/26 05:13:27;;;;;;;15.63;5.63;;;;;;;21.03;81.02;101396.47;4974712;28;20121;-76
2023/06/26 05:15:53;;;;;;;14.65;5.13;;;;;;;20.86;79.53;101383.22;4974585;28;20134;-78
2023/06/26 05:18:18;;;;;;;14.32;5.30;;;;;;;20.97;78.85;101384.81;4974955;28;20077;-76
2023/06/26 05:20:44;;;;;;;12.75;5.05;;;;;;;21.16;78.22;101416.16;4974999;28;20042;-76
2023/06/26 05:23:12;;;;;;;12.43;4.85;;;;;;;20.96;79.09;101403.34;4974895;28;20034;-76
2023/06/26 05:25:38;;;;;;;13.82;5.22;;;;;;;21.29;77.87;101422.84;4974955;28;20395;-76
2023/06/26 05:28:09;;;;;;;15.77;5.05;;;;;;;21.60;76.71;101423.25;4974646;28;20069;-75
2023/06/26 05:30:35;;;;;;;14.45;4.65;;;;;;;22.14;74.07;101408.16;4973474;28;20034;-79
2023/06/26 05:33:02;;;;;;;15.80;4.75;;;;;;;22.67;72.82;101407.00;4974778;28;20459;-81
2023/06/26 05:35:29;;;;;;;12.23;4.47;;;;;;;23.33;68.89;101425.38;4974743;28;20527;-78
2023/06/26 05:37:55;;;;;;;13.35;4.22;;;;;;;23.24;67.75;101428.16;4974738;28;20055;-82
2023/06/26 05:40:21;;;;;;;9.85;4.03;;;;;;;23.17;66.98;101426.19;4972599;28;20505;-79
2023/06/26 05:42:47;;;;;;;11.80;4.50;;;;;;;23.57;66.02;101402.59;4974602;28;20035;-82
2023/06/26 05:45:12;;;;;;;12.48;4.30;;;;;;;24.19;63.13;101430.00;4974288;28;20037;-78
2023/06/26 05:47:38;;;;;;;14.23;4.30;;;;;;;24.74;61.30;101423.81;5012057;28;20050;-80
2023/06/26 05:50:04;;;;;;;10.82;3.80;;;;;;;25.25;58.39;101424.13;5015448;28;20029;-80
2023/06/26 05:52:29;;;;;;;13.40;4.30;;;;;;;25.87;55.77;101449.53;5015248;28;20037;-80
2023/06/26 05:54:59;;;;;;;11.43;3.90;;;;;;;26.38;54.03;101442.50;5013872;28;20423;-78
2023/06/26 05:57:27;;;;;;;11.35;3.88;;;;;;;27.03;52.72;101448.72;4997509;28;20399;-81
2023/06/26 05:59:52;;;;;;;9.50;3.80;;;;;;;27.50;50.54;101432.19;5015195;28;20053;-78
2023/06/26 06:02:18;;;;;;;10.18;3.72;;;;;;;27.54;50.33;101453.88;5015206;28;20057;-79
2023/06/26 06:04:43;;;;;;;12.93;3.83;;;;;;;28.04;49.20;101458.09;5120080;23;20057;-79
2023/06/26 06:07:09;;;;;;;12.43;4.00;;;;;;;28.29;47.58;101445.16;5034881;28;20029;-77
2023/06/26 06:09:34;;;;;;;11.23;3.35;;;;;;;28.51;46.56;101453.81;5033034;28;20084;-78
2023/06/26 06:12:01;;;;;;;13.00;3.70;;;;;;;29.06;46.00;101474.00;5034781;28;20026;-80
2023/06/26 06:14:27;;;;;;;11.15;3.83;;;;;;;28.79;45.69;101459.00;5034547;28;20434;-77
2023/06/26 06:16:52;;;;;;;11.40;3.03;;;;;;;29.17;45.77;101472.59;5033395;28;20471;-81
2023/06/26 06:19:17;;;;;;;10.05;3.50;;;;;;;29.35;43.96;101458.69;5034206;28;20032;-81
2023/06/26 06:21:43;;;;;;;10.23;3.42;;;;;;;29.14;43.85;101476.47;5034504;28;20053;-80
2023/06/26 06:24:09;;;;;;;19.35;4.07;;;;;;;28.93;45.10;101473.19;5034803;28;20041;-79
2023/06/26 06:26:35;;;;;;;11.65;3.67;;;;;;;29.39;44.02;101476.69;5034817;28;20056;-81
2023/06/26 06:29:00;;;;;;;9.65;3.42;;;;;;;29.52;42.94;101469.78;5034413;28;20068;-81
2023/06/26 06:31:28;;;;;;;16.33;3.30;;;;;;;29.23;43.09;101460.34;5034544;28;20033;-81
2023/06/26 06:33:54;;;;;;;11.48;3.45;;;;;;;29.04;42.80;101469.94;5034250;28;20167;-77
2023/06/26 06:36:19;;;;;;;11.48;3.80;;;;;;;29.38;42.41;101491.00;5034689;28;20030;-81
2023/06/26 06:38:45;;;;;;;11.18;3.53;;;;;;;29.82;42.86;101492.25;5035028;28;20508;-78
2023/06/26 06:41:11;;;;;;;10.45;3.28;;;;;;;30.40;41.28;101499.50;5034365;28;20049;-78
2023/06/26 06:43:36;;;;;;;9.30;3.05;;;;;;;30.77;39.88;101489.91;5034369;28;20032;-79
2023/06/26 06:46:02;;;;;;;12.48;3.80;;;;;;;30.73;39.95;101472.72;5034384;28;20026;-80
2023/06/26 06:48:28;;;;;;;11.65;3.42;;;;;;;30.76;40.47;101518.41;5016332;28;20383;-77
2023/06/26 06:50:53;;;;;;;8.95;3.17;;;;;;;30.33;40.64;101507.53;5034266;28;20059;-77
2023/06/26 06:53:22;;;;;;;9.30;3.40;;;;;;;30.40;40.02;101497.66;5034060;28;20033;-80
2023/06/26 06:55:48;;;;;;;7.35;2.97;;;;;;;31.10;40.09;101522.53;5033081;28;20108;-80
2023/06/26 06:58:13;;;;;;;7.90;3.10;;;;;;;30.59;39.88;101513.78;5034132;28;20049;-79
2023/06/26 07:00:38;;;;;;;9.65;3.35;;;;;;;30.11;41.32;101522.16;5033956;28;20037;-79
2023/06/26 07:03:04;;;;;;;12.48;3.30;;;;;;;29.45;42.61;101527.47;5035740;28;20030;-78
2023/06/26 07:05:29;;;;;;;8.48;2.80;;;;;;;28.00;43.98;101534.63;5053346;28;20033;-79
2023/06/26 07:07:55;;;;;;;10.07;3.50;;;;;;;26.52;48.18;101552.06;5053867;28;20021;-77
2023/06/26 07:10:20;;;;;;;8.77;3.58;;;;;;;25.71;51.80;101553.69;5053817;28;20043;-79
2023/06/26 07:12:46;;;;;;;11.07;3.50;;;;;;;25.11;53.48;101555.22;5053775;28;20032;-79
2023/06/26 07:15:12;;;;;;;9.30;3.20;;;;;;;26.34;50.91;101536.50;5053216;28;20494;-80
2023/06/26 07:17:40;;;;;;;8.88;3.08;;;;;;;27.54;47.37;101522.84;5053803;28;20489;-80
2023/06/26 07:20:07;;;;;;;9.57;3.28;;;;;;;27.74;46.80;101553.03;5053555;28;20021;-80
2023/06/26 07:22:33;;;;;;;8.80;3.15;;;;;;;26.76;48.42;101532.41;5053638;28;20100;-80
2023/06/26 07:24:59;;;;;;;7.30;3.05;;;;;;;26.20;50.33;101555.88;5053426;28;20033;-79
2023/06/26 07:27:24;;;;;;;8.48;3.00;;;;;;;26.36;50.33;101563.66;5053374;28;20021;-80
2023/06/26 07:29:49;;;;;;;6.75;3.10;;;;;;;25.88;51.80;101565.78;5053132;28;20025;-80
2023/06/26 07:32:14;;;;;;;9.38;3.63;;;;;;;25.79;53.04;101558.09;5053604;28;20079;-80
2023/06/26 07:34:40;;;;;;;8.32;3.42;;;;;;;26.09;52.30;101572.22;5036503;28;20036;-83
2023/06/26 07:37:05;;;;;;;6.10;3.20;;;;;;;27.00;50.00;101578.97;5055236;28;20040;-84
2023/06/26 07:39:30;;;;;;;8.30;3.33;;;;;;;27.23;48.55;101581.47;5054179;28;20021;-80
2023/06/26 07:41:59;;;;;;;9.75;3.60;;;;;;;27.18;48.28;101576.75;5053185;28;20382;-83
2023/06/26 07:44:24;;;;;;;6.75;3.45;;;;;;;26.68;50.95;101564.31;5052773;28;20466;-79
2023/06/26 07:46:52;;;;;;;7.63;3.55;;;;;;;26.12;50.88;101551.47;5052966;28;20036;-81
2023/06/26 07:49:17;;;;;;;8.23;3.60;;;;;;;26.08;52.39;101583.81;5053026;28;20036;-82
2023/06/26 07:51:43;;;;;;;6.43;3.03;;;;;;;25.76;51.88;101591.00;5052917;28;20052;-83
2023/06/26 07:54:08;;;;;;;7.25;3.08;;;;;;;25.30;53.43;101600.72;5053238;28;20037;-83
2023/06/26 07:56:57;;;;;;;9.70;3.35;;;;;;;25.05;53.01;101607.94;5052963;28;20021;-80
2023/06/26 07:59:25;;;;;;;7.47;3.10;;;;;;;24.78;54.33;101606.56;4971461;28;20031;-81
2023/06/26 08:01:51;;;;;;;5.53;2.67;;;;;;;24.36;54.63;101588.34;4971496;28;20031;-80
2023/06/26 08:04:22;;;;;;;5.18;2.30;;;;;;;24.13;53.75;101586.38;4971636;28;20489;-81
2023/06/26 08:06:48;;;;;;;;;;;;;;;24.51;53.88;101615.72;4972412;28;20453;-80
2023/06/26 08:09:14;;;;;;;4.63;2.15;;;;;;;24.47;54.63;101606.47;4971740;28;19914;-81
2023/06/26 08:11:39;;;;;;;6.53;2.05;;;;;;;24.68;51.61;101621.75;4971710;28;20042;-80
2023/06/26 08:14:05;;;;;;;5.57;1.80;;;;;;;24.58;51.79;101621.94;4967617;28;20035;-79
2023/06/26 08:16:30;;;;;;;5.13;1.73;;;;;;;24.55;51.20;101632.84;4970670;28;20043;-82
2023/06/26 08:18:56;;;;;;;6.57;2.00;;;;;;;24.29;50.56;101604.84;4971671;28;20027;-82
2023/06/26 08:21:21;;;;;;;6.75;2.03;;;;;;;24.33;49.36;101628.28;4971969;28;20469;-82
2023/06/26 08:23:46;;;;;;;8.13;1.70;;;;;;;24.02;49.30;101624.47;4971482;28;20054;-82
2023/06/26 08:26:13;;;;;;;7.03;2.00;;;;;;;24.04;50.63;101629.59;4971532;28;20038;-78
2023/06/26 08:28:38;;;;;;;4.93;2.17;;;;;;;24.04;51.68;101629.59;4971759;28;20114;-81
2023/06/26 08:31:04;;;;;;;4.82;1.58;;;;;;;23.89;52.88;101602.19;4971526;28;20039;-80
2023/06/26 08:33:29;;;;;;;5.18;1.60;;;;;;;23.87;51.86;101591.00;4971352;28;20483;-82
2023/06/26 08:35:54;;;;;;;6.20;1.77;;;;;;;23.89;52.21;101607.47;4991661;28;20064;-82
2023/06/26 08:38:21;;;;;;;6.72;1.42;;;;;;;23.95;51.34;101626.13;5032603;28;20096;-81
2023/06/26 08:40:46;;;;;;;5.63;1.48;;;;;;;23.92;53.57;101628.28;5032195;28;20113;-82
2023/06/26 08:43:11;;;;;;;4.95;1.58;;;;;;;23.78;52.29;101626.28;5030568;28;20355;-76
2023/06/26 08:45:37;;;;;;;5.15;1.50;;;;;;;23.77;52.79;101637.81;5013706;28;20029;-76
2023/06/26 08:48:07;;;;;;;7.47;1.65;;;;;;;23.47;52.11;101611.84;5032275;28;20034;-79
2023/06/26 08:50:34;;;;;;;6.63;1.85;;;;;;;23.55;52.44;101626.88;5032443;28;20028;-80
2023/06/26 08:53:21;;;;;;;6.05;1.98;;;;;;;23.74;52.10;101636.34;5014695;28;20037;-80
2023/06/26 08:55:51;;;;;;;4.50;1.60;;;;;;;23.64;52.10;101640.94;5032205;28;20037;-80
2023/06/26 08:58:17;;;;;;;4.82;1.60;;;;;;;23.66;51.18;101636.31;5032495;28;20025;-81
2023/06/26 09:00:43;;;;;;;6.00;1.48;;;;;;;23.72;52.19;101625.94;5031921;28;20367;-81
2023/06/26 09:03:09;;;;;;;6.70;1.33;;;;;;;23.83;49.90;101658.28;5031923;28;20034;-78
2023/06/26 09:05:35;;;;;;;6.38;1.73;;;;;;;23.68;49.93;101656.25;5030747;28;20041;-80
2023/06/26 09:08:01;;;;;;;4.97;1.40;;;;;;;23.67;51.36;101654.59;5032337;28;20065;-82
2023/06/26 09:10:26;;;;;;;6.15;1.60;;;;;;;23.68;51.43;101668.63;5032256;28;20118;-81
2023/06/26 09:12:55;;;;;;;5.15;1.30;;;;;;;23.51;52.78;101644.00;5030217;28;20041;-80
2023/06/26 09:15:21;;;;;;;7.40;1.67;;;;;;;23.83;53.12;101668.81;5031935;28;20394;-80
2023/06/26 09:17:48;;;;;;;6.03;1.42;;;;;;;23.98;53.22;101673.28;5032158;28;20041;-78
2023/06/26 09:20:14;;;;;;;4.10;1.30;;;;;;;24.10;49.42;101668.53;5032270;28;20387;-80
2023/06/26 09:22:42;;;;;;;7.90;1.60;;;;;;;23.75;51.11;101662.53;5032111;28;20022;-79
2023/06/26 09:25:08;;;;;;;5.63;1.65;;;;;;;23.91;52.74;101680.22;5032383;28;20022;-78
2023/06/26 09:27:34;;;;;;;6.03;1.73;;;;;;;24.14;49.96;101671.66;5032004;28;20022;-80
2023/06/26 09:30:02;;;;;;;4.40;1.20;;;;;;;24.26;48.29;101673.78;5035665;28;20395;-80
2023/06/26 09:32:27;;;;;;;3.53;1.40;;;;;;;24.18;47.56;101671.13;5035235;28;20430;-80
2023/06/26 09:34:55;;;;;;;4.35;1.35;;;;;;;24.19;49.88;101674.63;5035729;28;20029;-78
2023/06/26 09:37:21;;;;;;;4.38;1.20;;;;;;;24.24;49.14;101694.25;5035695;28;20021;-80
2023/06/26 09:39:46;;;;;;;4.38;1.20;;;;;;;24.40;48.73;101676.78;5035520;28;20034;-80
2023/06/26 09:42:14;;;;;;;5.43;1.30;;;;;;;24.40;46.66;101677.63;5017025;28;20044;-77
2023/06/26 09:44:47;;;;;;;4.03;1.42;;;;;;;24.54;48.07;101689.31;5035525;28;20025;-80
2023/06/26 09:47:12;;;;;;;6.38;1.58;;;;;;;24.76;46.79;101699.16;5035115;28;20109;-80
2023/06/26 09:49:44;;;;;;;3.97;1.30;;;;;;;24.62;45.28;101691.13;5035190;28;20104;-79
2023/06/26 09:52:10;;;;;;;6.05;1.35;;;;;;;24.74;47.63;101711.72;5035301;28;20060;-81
2023/06/26 09:54:36;;;;;;;4.97;1.23;;;;;;;24.45;45.11;101679.75;5035430;28;20061;-80
2023/06/26 09:57:13;;;;;;;5.47;1.20;;;;;;;24.68;45.28;101715.06;5035273;28;20025;-82
2023/06/26 09:59:39;;;;;;;4.78;1.20;;;;;;;24.59;45.61;101700.22;5035059;28;20030;-79
2023/06/26 10:02:05;;;;;;;4.60;1.23;;;;;;;24.68;45.18;101703.63;5034914;28;20033;-79
2023/06/26 10:04:30;;;;;;;3.15;1.25;;;;;;;24.40;45.34;101711.13;5034760;28;20048;-78
2023/06/26 10:06:57;;;;;;;5.30;1.45;;;;;;;24.02;45.02;101726.56;5035146;28;20108;-79
2023/06/26 10:09:23;;;;;;;3.50;1.02;;;;;;;23.92;45.01;101724.06;5033155;28;20452;-78
2023/06/26 10:11:55;;;;;;;15.25;1.58;;;;;;;24.18;45.44;101723.09;5033131;28;20042;-78
2023/06/26 10:14:22;;;;;;;4.22;0.95;;;;;;;24.33;44.53;101734.69;5034841;28;20068;-77
2023/06/26 10:16:50;;;;;;;5.57;1.33;;;;;;;23.94;43.24;101679.88;5032886;28;20043;-77
2023/06/26 10:19:21;;;;;;;7.22;1.15;;;;;;;24.24;42.77;101743.56;5034653;28;20079;-78
2023/06/26 10:21:46;;;;;;;4.53;0.90;;;;;;;24.05;42.83;101713.03;5034679;28;20022;-78
2023/06/26 10:24:12;;;;;;;3.72;1.10;;;;;;;24.16;43.72;101743.56;5034836;28;20108;-76
2023/06/26 10:26:43;;;;;;;4.32;1.13;;;;;;;24.23;45.35;101739.28;5034855;28;20048;-78
2023/06/26 10:29:09;;;;;;;;;;;;;;;24.42;43.55;101738.16;5032998;28;20056;-79
2023/06/26 10:31:36;;;;;;;5.22;1.15;;;;;;;24.30;43.52;101729.72;5034124;28;20007;-79
2023/06/26 10:34:02;;;;;;;6.93;1.23;;;;;;;24.29;42.74;101734.19;5034376;28;20037;-79
2023/06/26 10:36:30;;;;;;;2.88;1.02;;;;;;;24.50;44.45;101724.97;5034448;28;20021;-79
2023/06/26 10:38:57;;;;;;;3.03;0.85;;;;;;;24.65;42.90;101727.75;5033297;28;20037;-79
2023/06/26 10:41:23;;;;;;;3.33;1.20;;;;;;;24.61;41.77;101740.47;5033785;28;20026;-76
2023/06/26 10:43:58;;;;;;;4.53;1.10;;;;;;;24.17;42.17;101734.66;5034284;28;20061;-76
2023/06/26 10:46:23;;;;;;;4.30;1.00;;;;;;;24.04;44.34;101753.59;5034218;28;20025;-77
2023/06/26 10:49:01;;;;;;;4.57;1.20;;;;;;;24.23;43.21;101761.22;5034183;28;20083;-77
2023/06/26 10:51:28;;;;;;;3.53;1.15;;;;;;;24.49;42.87;101753.19;5032995;28;20021;-78
2023/06/26 10:53:54;;;;;;;4.30;1.33;;;;;;;24.70;41.88;101750.03;5033942;28;20033;-78
2023/06/26 10:56:20;;;;;;;2.78;1.02;;;;;;;24.87;43.42;101740.25;5033979;28;20032;-77
2023/06/26 10:58:47;;;;;;;3.85;1.05;;;;;;;24.65;41.69;101715.38;5034184;28;20025;-78
2023/06/26 11:01:15;;;;;;;3.28;1.00;;;;;;;24.73;41.41;101749.69;5034357;28;20029;-80
2023/06/26 11:03:58;;;;;;;7.15;1.20;;;;;;;24.65;41.24;101760.28;5033735;28;20156;-77
2023/06/26 11:06:24;;;;;;;3.70;1.13;;;;;;;24.57;40.42;101763.72;5032413;28;20025;-74
2023/06/26 11:08:54;;;;;;;3.40;1.08;;;;;;;24.44;39.29;101744.09;5034305;28;20021;-77
2023/06/26 11:11:21;;;;;;;2.85;1.08;;;;;;;24.50;40.84;101761.94;5031958;28;20037;-76
2023/06/26 11:13:47;;;;;;;4.47;1.00;;;;;;;24.76;39.98;101767.03;5033560;28;20029;-76
2023/06/26 11:16:14;;;;;;;5.25;1.23;;;;;;;24.62;40.45;101733.38;5033812;28;20044;-79
2023/06/26 11:18:40;;;;;;;3.97;1.00;;;;;;;25.00;38.90;101755.63;5033676;28;20029;-79